sensor_id;sensor_type;location;lat;lon;timestamp;pressure;altitude;pressure_sealevel;temperature;humidity
56825;BME280;42705;50.326;18.772;2023-01-27T00:02:58;98621.61;;;0.33;67.39
56825;BME280;42705;50.326;18.772;2023-01-27T00:08:19;98617.79;;;0.45;67.57
56825;BME280;42705;50.326;18.772;2023-01-27T00:13:40;98619.48;;;0.49;67.67
56825;BME280;42705;50.326;18.772;2023-01-27T00:19:02;98618.81;;;0.41;67.28
56825;BME280;42705;50.326;18.772;2023-01-27T00:24:23;98616.73;;;0.30;67.68
56825;BME280;42705;50.326;18.772;2023-01-27T00:29:56;98620.91;;;0.18;67.36
56825;BME280;42705;50.326;18.772;2023-01-27T00:35:21;98622.77;;;0.11;67.59
56825;BME280;42705;50.326;18.772;2023-01-27T00:40:42;98625.36;;;0.14;68.08
56825;BME280;42705;50.326;18.772;2023-01-27T00:46:24;98623.89;;;0.16;68.23
56825;BME280;42705;50.326;18.772;2023-01-27T00:51:45;98622.55;;;0.20;68.43
56825;BME280;42705;50.326;18.772;2023-01-27T00:57:07;98626.02;;;0.15;68.41
56825;BME280;42705;50.326;18.772;2023-01-27T01:02:28;98618.86;;;0.06;68.43
56825;BME280;42705;50.326;18.772;2023-01-27T01:07:50;98616.98;;;0.06;68.44
56825;BME280;42705;50.326;18.772;2023-01-27T01:13:11;98622.23;;;0.08;68.58
56825;BME280;42705;50.326;18.772;2023-01-27T01:18:32;98620.84;;;0.11;68.73
56825;BME280;42705;50.326;18.772;2023-01-27T01:23:54;98621.14;;;0.12;69.00
56825;BME280;42705;50.326;18.772;2023-01-27T01:29:16;98622.64;;;0.10;69.06
56825;BME280;42705;50.326;18.772;2023-01-27T01:34:37;98620.14;;;0.08;69.06
56825;BME280;42705;50.326;18.772;2023-01-27T01:39:58;98618.73;;;0.16;69.18
56825;BME280;42705;50.326;18.772;2023-01-27T01:51:00;98625.80;;;0.31;69.49
56825;BME280;42705;50.326;18.772;2023-01-27T02:01:57;98619.45;;;0.38;69.41
56825;BME280;42705;50.326;18.772;2023-01-27T02:13:00;98613.73;;;0.28;69.31
56825;BME280;42705;50.326;18.772;2023-01-27T02:18:23;98608.37;;;0.10;69.50
56825;BME280;42705;50.326;18.772;2023-01-27T02:29:18;98598.56;;;-0.05;70.15
56825;BME280;42705;50.326;18.772;2023-01-27T02:34:40;98598.34;;;-0.04;70.10
56825;BME280;42705;50.326;18.772;2023-01-27T02:40:03;98597.92;;;-0.06;70.17
56825;BME280;42705;50.326;18.772;2023-01-27T02:45:25;98599.17;;;-0.07;70.27
56825;BME280;42705;50.326;18.772;2023-01-27T02:50:49;98598.50;;;-0.04;70.70
56825;BME280;42705;50.326;18.772;2023-01-27T02:56:10;98602.86;;;0.03;70.79
56825;BME280;42705;50.326;18.772;2023-01-27T03:01:31;98603.06;;;0.17;70.83
56825;BME280;42705;50.326;18.772;2023-01-27T03:06:53;98603.27;;;0.28;70.60
56825;BME280;42705;50.326;18.772;2023-01-27T03:12:15;98608.40;;;0.32;70.64
56825;BME280;42705;50.326;18.772;2023-01-27T03:17:39;98609.59;;;0.21;70.30
56825;BME280;42705;50.326;18.772;2023-01-27T03:23:19;98610.77;;;0.14;70.51
56825;BME280;42705;50.326;18.772;2023-01-27T03:28:44;98617.30;;;0.06;70.67
56825;BME280;42705;50.326;18.772;2023-01-27T03:34:25;98622.94;;;-0.01;70.45
56825;BME280;42705;50.326;18.772;2023-01-27T03:39:51;98624.61;;;0.08;70.63
56825;BME280;42705;50.326;18.772;2023-01-27T03:45:31;98618.24;;;0.01;70.49
56825;BME280;42705;50.326;18.772;2023-01-27T03:51:11;98616.67;;;-0.10;70.52
56825;BME280;42705;50.326;18.772;2023-01-27T03:56:32;98617.24;;;-0.20;70.41
56825;BME280;42705;50.326;18.772;2023-01-27T04:01:56;98621.02;;;-0.20;70.45
56825;BME280;42705;50.326;18.772;2023-01-27T04:07:36;98615.79;;;-0.30;70.25
56825;BME280;42705;50.326;18.772;2023-01-27T04:12:58;98613.04;;;-0.41;70.38
56825;BME280;42705;50.326;18.772;2023-01-27T04:18:19;98609.77;;;-0.49;70.45
56825;BME280;42705;50.326;18.772;2023-01-27T04:23:40;98616.31;;;-0.50;70.87
56825;BME280;42705;50.326;18.772;2023-01-27T04:29:02;98616.63;;;-0.49;70.63
56825;BME280;42705;50.326;18.772;2023-01-27T04:34:25;98616.91;;;-0.43;70.42
56825;BME280;42705;50.326;18.772;2023-01-27T04:39:47;98617.77;;;-0.48;70.21
56825;BME280;42705;50.326;18.772;2023-01-27T04:45:08;98620.56;;;-0.57;70.12
56825;BME280;42705;50.326;18.772;2023-01-27T04:50:30;98626.12;;;-0.66;70.17
56825;BME280;42705;50.326;18.772;2023-01-27T04:55:51;98621.71;;;-0.72;70.49
56825;BME280;42705;50.326;18.772;2023-01-27T05:01:12;98625.36;;;-0.73;70.29
56825;BME280;42705;50.326;18.772;2023-01-27T05:06:33;98621.98;;;-0.79;70.43
56825;BME280;42705;50.326;18.772;2023-01-27T05:11:54;98619.33;;;-0.85;70.38
56825;BME280;42705;50.326;18.772;2023-01-27T05:17:16;98617.81;;;-0.90;70.39
56825;BME280;42705;50.326;18.772;2023-01-27T05:22:37;98621.86;;;-0.88;70.31
56825;BME280;42705;50.326;18.772;2023-01-27T05:27:58;98624.61;;;-0.80;70.35
56825;BME280;42705;50.326;18.772;2023-01-27T05:33:19;98625.63;;;-0.75;70.27
56825;BME280;42705;50.326;18.772;2023-01-27T05:38:41;98625.52;;;-0.72;70.28
56825;BME280;42705;50.326;18.772;2023-01-27T05:44:03;98633.23;;;-0.77;70.27
56825;BME280;42705;50.326;18.772;2023-01-27T05:49:25;98641.30;;;-0.77;70.03
56825;BME280;42705;50.326;18.772;2023-01-27T05:54:46;98645.63;;;-0.74;69.97
56825;BME280;42705;50.326;18.772;2023-01-27T06:00:07;98655.30;;;-0.71;70.00
56825;BME280;42705;50.326;18.772;2023-01-27T06:05:29;98656.02;;;-0.72;69.71
56825;BME280;42705;50.326;18.772;2023-01-27T06:10:51;98660.55;;;-0.78;69.90
56825;BME280;42705;50.326;18.772;2023-01-27T06:16:15;98665.10;;;-0.80;69.86
56825;BME280;42705;50.326;18.772;2023-01-27T06:21:40;98663.27;;;-0.86;69.48
56825;BME280;42705;50.326;18.772;2023-01-27T06:27:01;98669.38;;;-0.88;69.22
56825;BME280;42705;50.326;18.772;2023-01-27T06:32:22;98675.91;;;-0.93;69.59
56825;BME280;42705;50.326;18.772;2023-01-27T06:37:43;98674.96;;;-0.99;69.53
56825;BME280;42705;50.326;18.772;2023-01-27T06:43:10;98681.42;;;-1.07;69.39
56825;BME280;42705;50.326;18.772;2023-01-27T06:48:32;98687.23;;;-1.15;69.36
56825;BME280;42705;50.326;18.772;2023-01-27T06:53:54;98691.56;;;-1.16;69.10
56825;BME280;42705;50.326;18.772;2023-01-27T06:59:15;98696.23;;;-1.22;69.48
56825;BME280;42705;50.326;18.772;2023-01-27T07:04:36;98704.20;;;-1.23;69.34
56825;BME280;42705;50.326;18.772;2023-01-27T07:09:58;98708.59;;;-1.30;69.46
56825;BME280;42705;50.326;18.772;2023-01-27T07:15:19;98704.32;;;-1.27;69.46
56825;BME280;42705;50.326;18.772;2023-01-27T07:20:40;98712.98;;;-1.16;69.48
56825;BME280;42705;50.326;18.772;2023-01-27T07:26:02;98710.71;;;-1.06;69.53
56825;BME280;42705;50.326;18.772;2023-01-27T07:31:23;98710.33;;;-1.09;69.00
56825;BME280;42705;50.326;18.772;2023-01-27T07:36:44;98711.80;;;-1.11;68.91
56825;BME280;42705;50.326;18.772;2023-01-27T07:42:06;98708.20;;;-1.12;68.70
56825;BME280;42705;50.326;18.772;2023-01-27T07:47:30;98714.41;;;-1.08;68.92
56825;BME280;42705;50.326;18.772;2023-01-27T07:52:51;98713.25;;;-1.05;68.57
56825;BME280;42705;50.326;18.772;2023-01-27T07:58:13;98711.67;;;-1.08;68.70
56825;BME280;42705;50.326;18.772;2023-01-27T08:03:34;98713.05;;;-1.13;68.65
56825;BME280;42705;50.326;18.772;2023-01-27T08:08:56;98709.94;;;-1.13;68.64
56825;BME280;42705;50.326;18.772;2023-01-27T08:14:17;98700.08;;;-1.06;68.75
56825;BME280;42705;50.326;18.772;2023-01-27T08:19:38;98698.85;;;-1.10;68.87
56825;BME280;42705;50.326;18.772;2023-01-27T08:24:59;98707.20;;;-1.18;68.93
56825;BME280;42705;50.326;18.772;2023-01-27T08:30:21;98706.41;;;-1.10;68.95
56825;BME280;42705;50.326;18.772;2023-01-27T08:35:43;98709.67;;;-1.01;69.31
56825;BME280;42705;50.326;18.772;2023-01-27T08:41:10;98707.16;;;-0.94;69.03
56825;BME280;42705;50.326;18.772;2023-01-27T08:46:32;98719.80;;;-1.02;68.92
56825;BME280;42705;50.326;18.772;2023-01-27T08:51:53;98721.39;;;-1.03;69.02
56825;BME280;42705;50.326;18.772;2023-01-27T08:57:14;98723.30;;;-0.99;68.92
56825;BME280;42705;50.326;18.772;2023-01-27T09:02:36;98725.89;;;-1.04;68.61
56825;BME280;42705;50.326;18.772;2023-01-27T09:07:57;98735.30;;;-1.08;68.67
56825;BME280;42705;50.326;18.772;2023-01-27T09:13:19;98738.39;;;-0.99;68.80
56825;BME280;42705;50.326;18.772;2023-01-27T09:18:42;98739.24;;;-0.90;68.73
56825;BME280;42705;50.326;18.772;2023-01-27T09:24:03;98744.02;;;-0.85;68.87
56825;BME280;42705;50.326;18.772;2023-01-27T09:29:24;98745.59;;;-0.77;68.61
56825;BME280;42705;50.326;18.772;2023-01-27T09:34:45;98749.52;;;-0.67;68.64
56825;BME280;42705;50.326;18.772;2023-01-27T09:40:22;98757.21;;;-0.59;68.67
56825;BME280;42705;50.326;18.772;2023-01-27T09:46:05;98757.50;;;-0.40;68.47
56825;BME280;42705;50.326;18.772;2023-01-27T09:57:13;98759.40;;;-0.24;68.12
56825;BME280;42705;50.326;18.772;2023-01-27T10:20:38;98755.53;;;-0.30;68.81
56825;BME280;42705;50.326;18.772;2023-01-27T10:48:48;98750.47;;;0.33;69.45
56825;BME280;42705;50.326;18.772;2023-01-27T10:59:52;98750.02;;;0.50;69.11
56825;BME280;42705;50.326;18.772;2023-01-27T11:05:19;98746.19;;;0.44;68.83
56825;BME280;42705;50.326;18.772;2023-01-27T11:10:44;98747.72;;;0.37;68.56
56825;BME280;42705;50.326;18.772;2023-01-27T11:16:47;98742.58;;;0.25;68.31
56825;BME280;42705;50.326;18.772;2023-01-27T11:22:23;98739.75;;;0.23;68.28
56825;BME280;42705;50.326;18.772;2023-01-27T11:28:17;98744.30;;;0.28;68.14
56825;BME280;42705;50.326;18.772;2023-01-27T11:39:10;98742.41;;;0.21;67.85
56825;BME280;42705;50.326;18.772;2023-01-27T11:44:33;98742.63;;;0.24;67.85
56825;BME280;42705;50.326;18.772;2023-01-27T11:49:56;98749.73;;;0.14;67.45
56825;BME280;42705;50.326;18.772;2023-01-27T11:55:21;98752.88;;;0.01;66.77
56825;BME280;42705;50.326;18.772;2023-01-27T12:00:53;98755.31;;;-0.12;66.76
56825;BME280;42705;50.326;18.772;2023-01-27T12:06:27;98752.46;;;-0.18;66.79
56825;BME280;42705;50.326;18.772;2023-01-27T12:12:17;98756.48;;;-0.24;66.89
56825;BME280;42705;50.326;18.772;2023-01-27T12:17:44;98747.11;;;-0.30;66.82
56825;BME280;42705;50.326;18.772;2023-01-27T12:23:23;98741.19;;;-0.28;67.07
56825;BME280;42705;50.326;18.772;2023-01-27T12:28:52;98734.50;;;-0.24;66.78
56825;BME280;42705;50.326;18.772;2023-01-27T12:34:28;98730.40;;;-0.20;66.50
56825;BME280;42705;50.326;18.772;2023-01-27T12:39:57;98733.35;;;-0.16;66.17
56825;BME280;42705;50.326;18.772;2023-01-27T12:56:18;98728.77;;;0.02;65.50
56825;BME280;42705;50.326;18.772;2023-01-27T13:01:40;98736.34;;;-0.03;65.48
56825;BME280;42705;50.326;18.772;2023-01-27T13:07:06;98738.39;;;-0.06;65.47
56825;BME280;42705;50.326;18.772;2023-01-27T13:12:30;98739.58;;;-0.06;65.43
56825;BME280;42705;50.326;18.772;2023-01-27T13:17:56;98743.38;;;-0.10;65.10
56825;BME280;42705;50.326;18.772;2023-01-27T13:23:21;98741.33;;;-0.19;64.58
56825;BME280;42705;50.326;18.772;2023-01-27T13:45:40;98749.88;;;-0.30;64.31
56825;BME280;42705;50.326;18.772;2023-01-27T13:51:07;98750.83;;;-0.32;63.66
56825;BME280;42705;50.326;18.772;2023-01-27T13:57:11;98756.43;;;-0.31;63.74
56825;BME280;42705;50.326;18.772;2023-01-27T14:31:38;98761.78;;;-0.45;62.53
56825;BME280;42705;50.326;18.772;2023-01-27T14:37:18;98763.66;;;-0.44;62.56
56825;BME280;42705;50.326;18.772;2023-01-27T14:48:53;98786.73;;;-0.46;62.22
56825;BME280;42705;50.326;18.772;2023-01-27T14:55:18;98793.87;;;-0.40;62.57
56825;BME280;42705;50.326;18.772;2023-01-27T15:06:41;98800.41;;;-0.32;62.33
56825;BME280;42705;50.326;18.772;2023-01-27T15:18:22;98806.85;;;-0.34;62.16
56825;BME280;42705;50.326;18.772;2023-01-27T15:23:52;98811.59;;;-0.36;62.03
56825;BME280;42705;50.326;18.772;2023-01-27T15:29:18;98821.75;;;-0.37;61.94
56825;BME280;42705;50.326;18.772;2023-01-27T15:34:43;98825.32;;;-0.36;61.95
56825;BME280;42705;50.326;18.772;2023-01-27T15:45:33;98838.21;;;-0.36;61.83
56825;BME280;42705;50.326;18.772;2023-01-27T15:50:58;98836.15;;;-0.33;61.90
56825;BME280;42705;50.326;18.772;2023-01-27T15:56:45;98839.77;;;-0.33;61.60
56825;BME280;42705;50.326;18.772;2023-01-27T16:02:17;98843.39;;;-0.38;61.37
56825;BME280;42705;50.326;18.772;2023-01-27T16:07:40;98843.59;;;-0.38;61.06
56825;BME280;42705;50.326;18.772;2023-01-27T16:18:48;98840.02;;;-0.48;60.59
56825;BME280;42705;50.326;18.772;2023-01-27T16:30:18;98837.70;;;-0.54;60.47
56825;BME280;42705;50.326;18.772;2023-01-27T16:35:57;98832.42;;;-0.55;60.39
56825;BME280;42705;50.326;18.772;2023-01-27T16:41:26;98834.73;;;-0.58;60.37
56825;BME280;42705;50.326;18.772;2023-01-27T16:46:51;98840.71;;;-0.57;60.55
56825;BME280;42705;50.326;18.772;2023-01-27T16:52:21;98841.87;;;-0.56;60.40
56825;BME280;42705;50.326;18.772;2023-01-27T16:57:44;98840.09;;;-0.59;60.45
56825;BME280;42705;50.326;18.772;2023-01-27T17:03:13;98839.41;;;-0.63;60.69
56825;BME280;42705;50.326;18.772;2023-01-27T17:08:43;98835.94;;;-0.66;60.96
56825;BME280;42705;50.326;18.772;2023-01-27T17:14:11;98836.02;;;-0.69;61.08
56825;BME280;42705;50.326;18.772;2023-01-27T17:19:34;98839.00;;;-0.70;61.14
56825;BME280;42705;50.326;18.772;2023-01-27T17:25:02;98849.68;;;-0.71;61.55
56825;BME280;42705;50.326;18.772;2023-01-27T17:30:35;98853.98;;;-0.72;61.79
56825;BME280;42705;50.326;18.772;2023-01-27T17:36:07;98858.43;;;-0.63;62.05
56825;BME280;42705;50.326;18.772;2023-01-27T17:41:34;98862.29;;;-0.47;62.64
56825;BME280;42705;50.326;18.772;2023-01-27T17:46:59;98866.08;;;-0.38;62.67
56825;BME280;42705;50.326;18.772;2023-01-27T17:52:23;98867.98;;;-0.35;62.70
56825;BME280;42705;50.326;18.772;2023-01-27T17:57:50;98866.75;;;-0.34;62.95
56825;BME280;42705;50.326;18.772;2023-01-27T18:03:34;98868.91;;;-0.36;62.98
56825;BME280;42705;50.326;18.772;2023-01-27T18:08:59;98882.63;;;-0.40;63.30
56825;BME280;42705;50.326;18.772;2023-01-27T18:14:21;98892.34;;;-0.39;63.54
56825;BME280;42705;50.326;18.772;2023-01-27T18:19:51;98891.83;;;-0.39;63.37
56825;BME280;42705;50.326;18.772;2023-01-27T18:25:16;98895.09;;;-0.34;63.14
56825;BME280;42705;50.326;18.772;2023-01-27T18:30:45;98894.13;;;-0.36;63.02
56825;BME280;42705;50.326;18.772;2023-01-27T18:36:18;98902.10;;;-0.47;63.13
56825;BME280;42705;50.326;18.772;2023-01-27T18:41:45;98898.76;;;-0.58;63.21
56825;BME280;42705;50.326;18.772;2023-01-27T18:47:30;98906.71;;;-0.69;62.84
56825;BME280;42705;50.326;18.772;2023-01-27T18:52:55;98914.80;;;-0.74;62.67
56825;BME280;42705;50.326;18.772;2023-01-27T18:58:17;98918.93;;;-0.80;62.83
56825;BME280;42705;50.326;18.772;2023-01-27T19:03:38;98922.02;;;-0.89;62.38
56825;BME280;42705;50.326;18.772;2023-01-27T19:09:00;98926.82;;;-0.93;62.53
56825;BME280;42705;50.326;18.772;2023-01-27T19:14:24;98923.83;;;-0.91;62.23
56825;BME280;42705;50.326;18.772;2023-01-27T19:19:46;98922.43;;;-0.86;62.42
56825;BME280;42705;50.326;18.772;2023-01-27T19:25:08;98928.00;;;-0.79;62.47
56825;BME280;42705;50.326;18.772;2023-01-27T19:30:32;98924.58;;;-0.70;62.23
56825;BME280;42705;50.326;18.772;2023-01-27T19:36:02;98930.27;;;-0.56;62.21
56825;BME280;42705;50.326;18.772;2023-01-27T19:41:30;98928.55;;;-0.47;62.39
56825;BME280;42705;50.326;18.772;2023-01-27T19:46:53;98929.40;;;-0.47;62.39
56825;BME280;42705;50.326;18.772;2023-01-27T19:52:15;98938.04;;;-0.44;62.34
56825;BME280;42705;50.326;18.772;2023-01-27T19:57:38;98936.70;;;-0.45;62.01
56825;BME280;42705;50.326;18.772;2023-01-27T20:03:00;98947.57;;;-0.47;62.15
56825;BME280;42705;50.326;18.772;2023-01-27T20:08:22;98953.77;;;-0.47;62.20
56825;BME280;42705;50.326;18.772;2023-01-27T20:13:43;98956.85;;;-0.47;62.27
56825;BME280;42705;50.326;18.772;2023-01-27T20:19:04;98956.80;;;-0.54;62.00
56825;BME280;42705;50.326;18.772;2023-01-27T20:24:26;98963.23;;;-0.57;62.11
56825;BME280;42705;50.326;18.772;2023-01-27T20:29:47;98962.41;;;-0.58;62.35
56825;BME280;42705;50.326;18.772;2023-01-27T20:35:12;98966.05;;;-0.59;62.35
56825;BME280;42705;50.326;18.772;2023-01-27T20:40:33;98966.38;;;-0.54;62.29
56825;BME280;42705;50.326;18.772;2023-01-27T20:45:54;98966.84;;;-0.39;62.48
56825;BME280;42705;50.326;18.772;2023-01-27T20:51:16;98964.91;;;-0.33;62.43
56825;BME280;42705;50.326;18.772;2023-01-27T20:56:37;98963.81;;;-0.32;62.30
56825;BME280;42705;50.326;18.772;2023-01-27T21:01:58;98963.59;;;-0.34;62.21
56825;BME280;42705;50.326;18.772;2023-01-27T21:07:20;98960.96;;;-0.37;62.22
56825;BME280;42705;50.326;18.772;2023-01-27T21:12:42;98957.10;;;-0.40;62.38
56825;BME280;42705;50.326;18.772;2023-01-27T21:18:03;98957.61;;;-0.40;62.55
56825;BME280;42705;50.326;18.772;2023-01-27T21:23:26;98954.64;;;-0.38;62.54
56825;BME280;42705;50.326;18.772;2023-01-27T21:28:52;98954.27;;;-0.38;62.59
56825;BME280;42705;50.326;18.772;2023-01-27T21:34:13;98955.77;;;-0.36;62.57
56825;BME280;42705;50.326;18.772;2023-01-27T21:39:34;98954.91;;;-0.41;62.47
56825;BME280;42705;50.326;18.772;2023-01-27T21:44:56;98959.14;;;-0.39;62.54
56825;BME280;42705;50.326;18.772;2023-01-27T21:50:49;98959.15;;;-0.35;62.76
56825;BME280;42705;50.326;18.772;2023-01-27T21:56:11;98959.16;;;-0.31;62.62
56825;BME280;42705;50.326;18.772;2023-01-27T22:01:33;98955.90;;;-0.35;62.87
56825;BME280;42705;50.326;18.772;2023-01-27T22:06:55;98951.02;;;-0.42;63.06
56825;BME280;42705;50.326;18.772;2023-01-27T22:12:16;98946.46;;;-0.49;63.67
56825;BME280;42705;50.326;18.772;2023-01-27T22:17:37;98947.65;;;-0.53;63.67
56825;BME280;42705;50.326;18.772;2023-01-27T22:22:58;98948.42;;;-0.55;64.28
56825;BME280;42705;50.326;18.772;2023-01-27T22:28:20;98942.17;;;-0.63;64.42
56825;BME280;42705;50.326;18.772;2023-01-27T22:33:43;98945.98;;;-0.73;64.83
56825;BME280;42705;50.326;18.772;2023-01-27T22:39:05;98948.52;;;-0.72;65.22
56825;BME280;42705;50.326;18.772;2023-01-27T22:44:26;98949.30;;;-0.75;65.46
56825;BME280;42705;50.326;18.772;2023-01-27T22:49:47;98942.79;;;-0.75;65.61
56825;BME280;42705;50.326;18.772;2023-01-27T22:55:10;98943.48;;;-0.75;65.93
56825;BME280;42705;50.326;18.772;2023-01-27T23:00:31;98940.36;;;-0.79;65.90
56825;BME280;42705;50.326;18.772;2023-01-27T23:05:53;98932.16;;;-0.75;66.08
56825;BME280;42705;50.326;18.772;2023-01-27T23:11:14;98931.48;;;-0.76;66.27
56825;BME280;42705;50.326;18.772;2023-01-27T23:16:36;98929.10;;;-0.80;66.55
56825;BME280;42705;50.326;18.772;2023-01-27T23:21:57;98929.33;;;-0.87;66.47
56825;BME280;42705;50.326;18.772;2023-01-27T23:27:18;98921.30;;;-0.88;66.64
56825;BME280;42705;50.326;18.772;2023-01-27T23:32:39;98914.94;;;-0.83;66.80
56825;BME280;42705;50.326;18.772;2023-01-27T23:38:01;98913.66;;;-0.81;66.98
56825;BME280;42705;50.326;18.772;2023-01-27T23:43:22;98916.77;;;-0.77;66.70
56825;BME280;42705;50.326;18.772;2023-01-27T23:48:48;98915.89;;;-0.71;66.59
56825;BME280;42705;50.326;18.772;2023-01-27T23:54:10;98913.41;;;-0.69;66.86
56825;BME280;42705;50.326;18.772;2023-01-27T23:59:31;98915.04;;;-0.67;66.65
